sensor_id;sensor_type;location;lat;lon;timestamp;temperature;humidity
15705;DHT22;7952;48.396;12.806;2023-05-10T00:00:27;16.00;47.30
15705;DHT22;7952;48.396;12.806;2023-05-10T00:02:52;16.00;47.30
15705;DHT22;7952;48.396;12.806;2023-05-10T00:05:18;16.00;47.30
15705;DHT22;7952;48.396;12.806;2023-05-10T00:07:44;16.00;47.30
15705;DHT22;7952;48.396;12.806;2023-05-10T00:10:10;16.00;47.40
15705;DHT22;7952;48.396;12.806;2023-05-10T00:12:36;15.90;47.30
15705;DHT22;7952;48.396;12.806;2023-05-10T00:15:02;15.90;47.30
15705;DHT22;7952;48.396;12.806;2023-05-10T00:17:28;15.90;47.40
15705;DHT22;7952;48.396;12.806;2023-05-10T00:19:54;15.80;47.30
15705;DHT22;7952;48.396;12.806;2023-05-10T00:22:20;15.80;47.30
15705;DHT22;7952;48.396;12.806;2023-05-10T00:24:46;15.80;47.40
15705;DHT22;7952;48.396;12.806;2023-05-10T00:27:12;15.80;47.40
15705;DHT22;7952;48.396;12.806;2023-05-10T00:29:37;15.70;47.40
15705;DHT22;7952;48.396;12.806;2023-05-10T00:32:03;15.70;47.40
15705;DHT22;7952;48.396;12.806;2023-05-10T00:34:29;15.70;47.50
15705;DHT22;7952;48.396;12.806;2023-05-10T00:36:55;15.70;47.50
15705;DHT22;7952;48.396;12.806;2023-05-10T00:39:21;15.70;47.50
15705;DHT22;7952;48.396;12.806;2023-05-10T00:41:47;15.60;47.50
15705;DHT22;7952;48.396;12.806;2023-05-10T00:44:13;15.60;47.60
15705;DHT22;7952;48.396;12.806;2023-05-10T00:46:39;15.60;47.60
15705;DHT22;7952;48.396;12.806;2023-05-10T00:49:04;15.60;47.60
15705;DHT22;7952;48.396;12.806;2023-05-10T00:51:32;15.60;47.60
15705;DHT22;7952;48.396;12.806;2023-05-10T00:53:58;15.60;47.60
15705;DHT22;7952;48.396;12.806;2023-05-10T00:56:25;15.60;47.60
15705;DHT22;7952;48.396;12.806;2023-05-10T00:58:51;15.60;47.60
15705;DHT22;7952;48.396;12.806;2023-05-10T01:01:16;15.60;47.60
15705;DHT22;7952;48.396;12.806;2023-05-10T01:03:43;15.60;47.60
15705;DHT22;7952;48.396;12.806;2023-05-10T01:06:09;15.60;47.60
15705;DHT22;7952;48.396;12.806;2023-05-10T01:08:36;15.60;47.70
15705;DHT22;7952;48.396;12.806;2023-05-10T01:11:02;15.60;47.60
15705;DHT22;7952;48.396;12.806;2023-05-10T01:13:35;15.50;47.60
15705;DHT22;7952;48.396;12.806;2023-05-10T01:16:01;15.60;47.60
15705;DHT22;7952;48.396;12.806;2023-05-10T01:18:30;15.60;47.70
15705;DHT22;7952;48.396;12.806;2023-05-10T01:21:20;15.60;47.70
15705;DHT22;7952;48.396;12.806;2023-05-10T01:34:35;15.50;47.70
15705;DHT22;7952;48.396;12.806;2023-05-10T01:37:21;15.50;47.80
15705;DHT22;7952;48.396;12.806;2023-05-10T01:40:00;15.50;47.80
15705;DHT22;7952;48.396;12.806;2023-05-10T01:42:30;15.50;47.80
15705;DHT22;7952;48.396;12.806;2023-05-10T01:45:39;15.50;47.80
15705;DHT22;7952;48.396;12.806;2023-05-10T01:48:09;15.50;47.70
15705;DHT22;7952;48.396;12.806;2023-05-10T01:50:37;15.60;47.80
15705;DHT22;7952;48.396;12.806;2023-05-10T01:53:08;15.60;47.80
15705;DHT22;7952;48.396;12.806;2023-05-10T01:55:44;15.60;47.80
15705;DHT22;7952;48.396;12.806;2023-05-10T01:58:14;15.60;47.80
15705;DHT22;7952;48.396;12.806;2023-05-10T02:00:43;15.60;47.70
15705;DHT22;7952;48.396;12.806;2023-05-10T02:03:10;15.60;47.70
15705;DHT22;7952;48.396;12.806;2023-05-10T02:05:37;15.60;48.30
15705;DHT22;7952;48.396;12.806;2023-05-10T02:08:07;15.70;47.80
15705;DHT22;7952;48.396;12.806;2023-05-10T02:10:37;15.70;47.70
15705;DHT22;7952;48.396;12.806;2023-05-10T02:13:05;15.70;47.70
15705;DHT22;7952;48.396;12.806;2023-05-10T02:15:33;15.70;47.80
15705;DHT22;7952;48.396;12.806;2023-05-10T02:18:00;15.70;47.80
15705;DHT22;7952;48.396;12.806;2023-05-10T02:20:28;15.70;47.80
15705;DHT22;7952;48.396;12.806;2023-05-10T02:22:55;15.70;47.80
15705;DHT22;7952;48.396;12.806;2023-05-10T02:25:23;15.70;47.80
15705;DHT22;7952;48.396;12.806;2023-05-10T02:27:50;15.80;47.90
15705;DHT22;7952;48.396;12.806;2023-05-10T02:30:18;15.80;47.90
15705;DHT22;7952;48.396;12.806;2023-05-10T02:32:44;15.80;47.90
15705;DHT22;7952;48.396;12.806;2023-05-10T02:35:11;15.80;47.90
15705;DHT22;7952;48.396;12.806;2023-05-10T02:37:38;15.80;47.90
15705;DHT22;7952;48.396;12.806;2023-05-10T02:40:06;15.80;47.90
15705;DHT22;7952;48.396;12.806;2023-05-10T02:42:35;15.80;47.90
15705;DHT22;7952;48.396;12.806;2023-05-10T02:45:05;15.80;47.90
15705;DHT22;7952;48.396;12.806;2023-05-10T02:47:32;15.90;48.00
15705;DHT22;7952;48.396;12.806;2023-05-10T02:49:58;15.90;48.00
15705;DHT22;7952;48.396;12.806;2023-05-10T02:52:28;15.90;48.00
15705;DHT22;7952;48.396;12.806;2023-05-10T02:55:00;15.90;48.00
15705;DHT22;7952;48.396;12.806;2023-05-10T02:57:33;15.90;48.00
15705;DHT22;7952;48.396;12.806;2023-05-10T03:00:00;16.00;48.10
15705;DHT22;7952;48.396;12.806;2023-05-10T03:02:26;16.00;48.10
15705;DHT22;7952;48.396;12.806;2023-05-10T03:04:52;16.00;48.10
15705;DHT22;7952;48.396;12.806;2023-05-10T03:07:18;16.10;48.20
15705;DHT22;7952;48.396;12.806;2023-05-10T03:09:49;16.10;48.10
15705;DHT22;7952;48.396;12.806;2023-05-10T03:12:47;16.10;48.10
15705;DHT22;7952;48.396;12.806;2023-05-10T03:15:31;16.10;48.10
15705;DHT22;7952;48.396;12.806;2023-05-10T03:20:36;16.10;48.20
15705;DHT22;7952;48.396;12.806;2023-05-10T03:25:50;16.20;48.30
15705;DHT22;7952;48.396;12.806;2023-05-10T03:28:18;16.20;48.90
15705;DHT22;7952;48.396;12.806;2023-05-10T03:30:46;16.20;48.30
15705;DHT22;7952;48.396;12.806;2023-05-10T03:33:12;16.20;48.40
15705;DHT22;7952;48.396;12.806;2023-05-10T03:35:38;16.20;48.40
15705;DHT22;7952;48.396;12.806;2023-05-10T03:38:04;16.20;48.50
15705;DHT22;7952;48.396;12.806;2023-05-10T03:40:30;16.20;48.50
15705;DHT22;7952;48.396;12.806;2023-05-10T03:43:00;16.20;48.50
15705;DHT22;7952;48.396;12.806;2023-05-10T03:45:26;16.20;48.50
15705;DHT22;7952;48.396;12.806;2023-05-10T03:47:52;16.20;48.50
15705;DHT22;7952;48.396;12.806;2023-05-10T03:50:18;16.20;48.50
15705;DHT22;7952;48.396;12.806;2023-05-10T03:52:44;16.20;48.60
15705;DHT22;7952;48.396;12.806;2023-05-10T03:55:10;16.20;48.60
15705;DHT22;7952;48.396;12.806;2023-05-10T03:57:36;16.20;48.60
15705;DHT22;7952;48.396;12.806;2023-05-10T04:00:03;16.30;48.70
15705;DHT22;7952;48.396;12.806;2023-05-10T04:02:28;16.20;48.70
15705;DHT22;7952;48.396;12.806;2023-05-10T04:04:55;16.30;48.80
15705;DHT22;7952;48.396;12.806;2023-05-10T04:07:21;16.30;48.80
15705;DHT22;7952;48.396;12.806;2023-05-10T04:09:47;16.30;48.90
15705;DHT22;7952;48.396;12.806;2023-05-10T04:12:13;16.30;48.90
15705;DHT22;7952;48.396;12.806;2023-05-10T04:14:38;16.30;48.90
15705;DHT22;7952;48.396;12.806;2023-05-10T04:17:04;16.30;49.00
15705;DHT22;7952;48.396;12.806;2023-05-10T04:19:31;16.30;49.00
15705;DHT22;7952;48.396;12.806;2023-05-10T04:21:57;16.30;49.00
15705;DHT22;7952;48.396;12.806;2023-05-10T04:24:23;16.30;49.10
15705;DHT22;7952;48.396;12.806;2023-05-10T04:26:49;16.30;49.10
15705;DHT22;7952;48.396;12.806;2023-05-10T04:29:14;16.30;49.10
15705;DHT22;7952;48.396;12.806;2023-05-10T04:31:43;16.30;49.10
15705;DHT22;7952;48.396;12.806;2023-05-10T04:34:09;16.40;49.20
15705;DHT22;7952;48.396;12.806;2023-05-10T04:36:34;16.30;49.20
15705;DHT22;7952;48.396;12.806;2023-05-10T04:39:02;16.40;49.30
15705;DHT22;7952;48.396;12.806;2023-05-10T04:41:28;16.40;49.30
15705;DHT22;7952;48.396;12.806;2023-05-10T04:43:54;16.40;49.40
15705;DHT22;7952;48.396;12.806;2023-05-10T04:46:20;16.40;49.40
15705;DHT22;7952;48.396;12.806;2023-05-10T04:48:46;16.40;49.40
15705;DHT22;7952;48.396;12.806;2023-05-10T04:51:12;16.40;49.40
15705;DHT22;7952;48.396;12.806;2023-05-10T04:53:40;16.40;49.40
15705;DHT22;7952;48.396;12.806;2023-05-10T04:56:06;16.40;49.40
15705;DHT22;7952;48.396;12.806;2023-05-10T04:58:32;16.40;49.50
15705;DHT22;7952;48.396;12.806;2023-05-10T05:01:05;16.40;49.50
15705;DHT22;7952;48.396;12.806;2023-05-10T05:03:32;16.40;49.60
15705;DHT22;7952;48.396;12.806;2023-05-10T05:05:58;16.40;49.60
15705;DHT22;7952;48.396;12.806;2023-05-10T05:08:24;16.40;49.60
15705;DHT22;7952;48.396;12.806;2023-05-10T05:10:50;16.40;49.70
15705;DHT22;7952;48.396;12.806;2023-05-10T05:13:16;16.50;49.80
15705;DHT22;7952;48.396;12.806;2023-05-10T05:15:42;16.50;49.80
15705;DHT22;7952;48.396;12.806;2023-05-10T05:18:07;16.50;49.80
15705;DHT22;7952;48.396;12.806;2023-05-10T05:20:33;16.50;49.80
15705;DHT22;7952;48.396;12.806;2023-05-10T05:23:02;16.50;49.80
15705;DHT22;7952;48.396;12.806;2023-05-10T05:25:28;16.50;49.80
15705;DHT22;7952;48.396;12.806;2023-05-10T05:27:53;16.50;49.90
15705;DHT22;7952;48.396;12.806;2023-05-10T05:30:19;16.50;49.90
15705;DHT22;7952;48.396;12.806;2023-05-10T05:32:45;16.50;49.90
15705;DHT22;7952;48.396;12.806;2023-05-10T05:35:12;16.50;50.00
15705;DHT22;7952;48.396;12.806;2023-05-10T05:37:38;16.60;50.00
15705;DHT22;7952;48.396;12.806;2023-05-10T05:40:04;16.60;50.00
15705;DHT22;7952;48.396;12.806;2023-05-10T05:42:31;16.60;50.00
15705;DHT22;7952;48.396;12.806;2023-05-10T05:45:00;16.70;50.10
15705;DHT22;7952;48.396;12.806;2023-05-10T05:47:26;16.70;50.00
15705;DHT22;7952;48.396;12.806;2023-05-10T05:49:51;16.70;50.00
15705;DHT22;7952;48.396;12.806;2023-05-10T05:52:17;16.80;50.00
15705;DHT22;7952;48.396;12.806;2023-05-10T05:54:43;16.80;50.00
15705;DHT22;7952;48.396;12.806;2023-05-10T05:57:09;16.80;50.00
15705;DHT22;7952;48.396;12.806;2023-05-10T05:59:35;16.90;50.10
15705;DHT22;7952;48.396;12.806;2023-05-10T06:02:00;16.90;50.10
15705;DHT22;7952;48.396;12.806;2023-05-10T06:04:26;16.90;50.10
15705;DHT22;7952;48.396;12.806;2023-05-10T06:06:52;17.00;50.20
15705;DHT22;7952;48.396;12.806;2023-05-10T06:09:17;17.00;50.20
15705;DHT22;7952;48.396;12.806;2023-05-10T06:11:43;17.00;50.20
15705;DHT22;7952;48.396;12.806;2023-05-10T06:14:09;17.00;50.20
15705;DHT22;7952;48.396;12.806;2023-05-10T06:16:35;17.00;50.20
15705;DHT22;7952;48.396;12.806;2023-05-10T06:19:01;17.00;50.30
15705;DHT22;7952;48.396;12.806;2023-05-10T06:21:27;17.10;50.30
15705;DHT22;7952;48.396;12.806;2023-05-10T06:23:52;17.10;50.40
15705;DHT22;7952;48.396;12.806;2023-05-10T06:26:18;17.10;50.40
15705;DHT22;7952;48.396;12.806;2023-05-10T06:28:44;17.10;50.40
15705;DHT22;7952;48.396;12.806;2023-05-10T06:31:09;17.20;50.50
15705;DHT22;7952;48.396;12.806;2023-05-10T06:33:37;17.20;50.50
15705;DHT22;7952;48.396;12.806;2023-05-10T06:36:03;17.20;50.50
15705;DHT22;7952;48.396;12.806;2023-05-10T06:38:29;17.20;50.50
15705;DHT22;7952;48.396;12.806;2023-05-10T06:40:55;17.30;50.60
15705;DHT22;7952;48.396;12.806;2023-05-10T06:43:21;17.30;50.60
15705;DHT22;7952;48.396;12.806;2023-05-10T06:45:48;17.40;50.80
15705;DHT22;7952;48.396;12.806;2023-05-10T06:48:16;17.40;50.80
15705;DHT22;7952;48.396;12.806;2023-05-10T06:50:42;17.50;50.80
15705;DHT22;7952;48.396;12.806;2023-05-10T06:53:09;17.50;50.80
15705;DHT22;7952;48.396;12.806;2023-05-10T06:55:35;17.60;50.80
15705;DHT22;7952;48.396;12.806;2023-05-10T06:58:01;17.60;50.80
15705;DHT22;7952;48.396;12.806;2023-05-10T07:00:30;17.70;50.80
15705;DHT22;7952;48.396;12.806;2023-05-10T07:02:56;17.70;50.80
15705;DHT22;7952;48.396;12.806;2023-05-10T07:05:25;17.80;50.80
15705;DHT22;7952;48.396;12.806;2023-05-10T07:07:53;17.80;50.80
15705;DHT22;7952;48.396;12.806;2023-05-10T07:10:18;17.80;50.80
15705;DHT22;7952;48.396;12.806;2023-05-10T07:12:47;17.90;51.00
15705;DHT22;7952;48.396;12.806;2023-05-10T07:15:13;17.80;50.90
15705;DHT22;7952;48.396;12.806;2023-05-10T07:17:39;17.80;51.00
15705;DHT22;7952;48.396;12.806;2023-05-10T07:20:05;17.80;51.10
15705;DHT22;7952;48.396;12.806;2023-05-10T07:22:31;17.70;51.20
15705;DHT22;7952;48.396;12.806;2023-05-10T07:24:57;17.60;51.10
15705;DHT22;7952;48.396;12.806;2023-05-10T07:27:23;17.60;51.20
15705;DHT22;7952;48.396;12.806;2023-05-10T07:29:49;17.60;51.40
15705;DHT22;7952;48.396;12.806;2023-05-10T07:32:16;17.50;51.40
15705;DHT22;7952;48.396;12.806;2023-05-10T07:34:44;17.50;51.50
15705;DHT22;7952;48.396;12.806;2023-05-10T07:37:10;17.40;51.50
15705;DHT22;7952;48.396;12.806;2023-05-10T07:39:36;17.40;51.60
15705;DHT22;7952;48.396;12.806;2023-05-10T07:42:03;17.40;51.70
15705;DHT22;7952;48.396;12.806;2023-05-10T07:44:28;17.40;51.80
15705;DHT22;7952;48.396;12.806;2023-05-10T07:46:54;17.40;51.80
15705;DHT22;7952;48.396;12.806;2023-05-10T07:49:21;17.30;51.80
15705;DHT22;7952;48.396;12.806;2023-05-10T07:51:47;17.30;51.80
15705;DHT22;7952;48.396;12.806;2023-05-10T07:54:14;17.30;51.90
15705;DHT22;7952;48.396;12.806;2023-05-10T07:56:39;17.40;52.00
15705;DHT22;7952;48.396;12.806;2023-05-10T07:59:10;17.30;52.00
15705;DHT22;7952;48.396;12.806;2023-05-10T08:01:35;17.40;52.10
15705;DHT22;7952;48.396;12.806;2023-05-10T08:04:02;17.40;52.10
15705;DHT22;7952;48.396;12.806;2023-05-10T08:06:28;17.50;52.20
15705;DHT22;7952;48.396;12.806;2023-05-10T08:08:55;17.50;52.20
15705;DHT22;7952;48.396;12.806;2023-05-10T08:11:21;17.50;52.10
15705;DHT22;7952;48.396;12.806;2023-05-10T08:13:48;17.60;52.20
15705;DHT22;7952;48.396;12.806;2023-05-10T08:16:15;17.60;52.10
15705;DHT22;7952;48.396;12.806;2023-05-10T08:18:42;17.70;52.20
15705;DHT22;7952;48.396;12.806;2023-05-10T08:21:08;17.70;52.10
15705;DHT22;7952;48.396;12.806;2023-05-10T08:23:36;17.60;52.00
15705;DHT22;7952;48.396;12.806;2023-05-10T08:26:02;17.60;52.10
15705;DHT22;7952;48.396;12.806;2023-05-10T08:28:28;17.60;52.20
15705;DHT22;7952;48.396;12.806;2023-05-10T08:30:54;17.60;52.20
15705;DHT22;7952;48.396;12.806;2023-05-10T08:33:20;17.60;52.30
15705;DHT22;7952;48.396;12.806;2023-05-10T08:35:45;17.50;52.20
15705;DHT22;7952;48.396;12.806;2023-05-10T08:38:11;17.50;52.30
15705;DHT22;7952;48.396;12.806;2023-05-10T08:40:43;17.40;52.30
15705;DHT22;7952;48.396;12.806;2023-05-10T08:43:11;17.40;52.50
15705;DHT22;7952;48.396;12.806;2023-05-10T08:45:39;17.30;52.50
15705;DHT22;7952;48.396;12.806;2023-05-10T08:48:06;17.30;52.60
15705;DHT22;7952;48.396;12.806;2023-05-10T08:50:36;17.20;52.60
15705;DHT22;7952;48.396;12.806;2023-05-10T08:53:06;17.20;52.70
15705;DHT22;7952;48.396;12.806;2023-05-10T08:55:33;17.10;52.70
15705;DHT22;7952;48.396;12.806;2023-05-10T08:57:59;17.20;52.80
15705;DHT22;7952;48.396;12.806;2023-05-10T09:00:26;17.30;52.90
15705;DHT22;7952;48.396;12.806;2023-05-10T09:03:00;17.30;52.90
15705;DHT22;7952;48.396;12.806;2023-05-10T09:05:27;17.30;52.90
15705;DHT22;7952;48.396;12.806;2023-05-10T09:07:53;17.30;52.90
15705;DHT22;7952;48.396;12.806;2023-05-10T09:10:19;17.30;52.90
15705;DHT22;7952;48.396;12.806;2023-05-10T09:12:45;17.30;52.90
15705;DHT22;7952;48.396;12.806;2023-05-10T09:15:15;17.40;53.00
15705;DHT22;7952;48.396;12.806;2023-05-10T09:17:42;17.40;53.00
15705;DHT22;7952;48.396;12.806;2023-05-10T09:20:24;17.40;53.00
15705;DHT22;7952;48.396;12.806;2023-05-10T09:43:42;17.90;53.10
15705;DHT22;7952;48.396;12.806;2023-05-10T09:53:37;18.20;53.40
15705;DHT22;7952;48.396;12.806;2023-05-10T11:35:31;20.60;52.60
15705;DHT22;7952;48.396;12.806;2023-05-10T13:30:55;18.40;53.60
15705;DHT22;7952;48.396;12.806;2023-05-10T14:31:12;18.70;53.60
15705;DHT22;7952;48.396;12.806;2023-05-10T14:33:38;18.80;53.70
15705;DHT22;7952;48.396;12.806;2023-05-10T14:36:04;18.90;53.70
15705;DHT22;7952;48.396;12.806;2023-05-10T14:38:29;19.00;53.60
15705;DHT22;7952;48.396;12.806;2023-05-10T14:40:55;19.10;53.50
15705;DHT22;7952;48.396;12.806;2023-05-10T14:43:21;19.20;53.50
15705;DHT22;7952;48.396;12.806;2023-05-10T14:45:47;19.20;53.40
15705;DHT22;7952;48.396;12.806;2023-05-10T14:48:12;19.30;53.30
15705;DHT22;7952;48.396;12.806;2023-05-10T14:50:41;19.30;53.20
15705;DHT22;7952;48.396;12.806;2023-05-10T14:53:07;19.40;53.20
15705;DHT22;7952;48.396;12.806;2023-05-10T14:55:32;19.40;53.20
15705;DHT22;7952;48.396;12.806;2023-05-10T14:57:58;19.50;53.20
15705;DHT22;7952;48.396;12.806;2023-05-10T15:00:24;19.50;53.20
15705;DHT22;7952;48.396;12.806;2023-05-10T15:02:49;19.50;53.20
15705;DHT22;7952;48.396;12.806;2023-05-10T15:05:15;19.50;53.10
15705;DHT22;7952;48.396;12.806;2023-05-10T15:07:41;19.60;53.20
15705;DHT22;7952;48.396;12.806;2023-05-10T15:10:09;19.60;53.10
15705;DHT22;7952;48.396;12.806;2023-05-10T15:12:36;19.60;53.10
15705;DHT22;7952;48.396;12.806;2023-05-10T15:15:01;19.60;53.00
15705;DHT22;7952;48.396;12.806;2023-05-10T15:17:27;19.70;53.10
15705;DHT22;7952;48.396;12.806;2023-05-10T15:19:53;19.60;53.00
15705;DHT22;7952;48.396;12.806;2023-05-10T15:22:19;19.60;53.00
15705;DHT22;7952;48.396;12.806;2023-05-10T15:24:44;19.50;52.90
15705;DHT22;7952;48.396;12.806;2023-05-10T15:27:10;19.50;52.90
15705;DHT22;7952;48.396;12.806;2023-05-10T15:29:36;19.40;53.00
15705;DHT22;7952;48.396;12.806;2023-05-10T15:32:02;19.30;53.00
15705;DHT22;7952;48.396;12.806;2023-05-10T15:34:28;19.20;53.10
15705;DHT22;7952;48.396;12.806;2023-05-10T15:36:54;19.10;53.10
15705;DHT22;7952;48.396;12.806;2023-05-10T15:39:19;19.00;53.20
15705;DHT22;7952;48.396;12.806;2023-05-10T15:41:45;18.90;53.30
15705;DHT22;7952;48.396;12.806;2023-05-10T15:44:11;18.80;53.30
15705;DHT22;7952;48.396;12.806;2023-05-10T15:46:37;18.80;53.40
15705;DHT22;7952;48.396;12.806;2023-05-10T15:49:03;18.70;53.30
15705;DHT22;7952;48.396;12.806;2023-05-10T15:51:29;18.70;53.40
15705;DHT22;7952;48.396;12.806;2023-05-10T15:53:54;18.60;53.40
15705;DHT22;7952;48.396;12.806;2023-05-10T15:56:21;18.60;53.40
15705;DHT22;7952;48.396;12.806;2023-05-10T15:58:47;18.60;53.50
15705;DHT22;7952;48.396;12.806;2023-05-10T16:01:13;18.50;53.40
15705;DHT22;7952;48.396;12.806;2023-05-10T16:03:39;18.40;53.50
15705;DHT22;7952;48.396;12.806;2023-05-10T16:06:04;18.40;53.50
15705;DHT22;7952;48.396;12.806;2023-05-10T16:08:30;18.30;53.50
15705;DHT22;7952;48.396;12.806;2023-05-10T16:10:58;18.20;53.50
15705;DHT22;7952;48.396;12.806;2023-05-10T16:13:24;18.10;53.50
15705;DHT22;7952;48.396;12.806;2023-05-10T16:15:49;18.00;53.60
15705;DHT22;7952;48.396;12.806;2023-05-10T16:18:15;18.00;53.70
15705;DHT22;7952;48.396;12.806;2023-05-10T16:20:43;17.90;53.70
15705;DHT22;7952;48.396;12.806;2023-05-10T16:23:08;17.80;53.70
15705;DHT22;7952;48.396;12.806;2023-05-10T16:25:35;17.70;53.80
15705;DHT22;7952;48.396;12.806;2023-05-10T16:28:00;17.70;53.90
15705;DHT22;7952;48.396;12.806;2023-05-10T16:30:26;17.60;53.90
15705;DHT22;7952;48.396;12.806;2023-05-10T16:32:59;17.50;54.00
15705;DHT22;7952;48.396;12.806;2023-05-10T16:35:26;17.40;54.00
15705;DHT22;7952;48.396;12.806;2023-05-10T16:37:52;17.30;54.10
15705;DHT22;7952;48.396;12.806;2023-05-10T16:40:18;17.30;54.20
15705;DHT22;7952;48.396;12.806;2023-05-10T16:42:44;17.20;54.20
15705;DHT22;7952;48.396;12.806;2023-05-10T16:45:10;17.10;54.20
15705;DHT22;7952;48.396;12.806;2023-05-10T16:47:37;17.10;54.30
15705;DHT22;7952;48.396;12.806;2023-05-10T16:50:06;17.00;54.30
15705;DHT22;7952;48.396;12.806;2023-05-10T16:52:33;16.90;54.50
15705;DHT22;7952;48.396;12.806;2023-05-10T16:54:59;16.90;54.40
15705;DHT22;7952;48.396;12.806;2023-05-10T16:57:25;16.80;54.40
15705;DHT22;7952;48.396;12.806;2023-05-10T16:59:51;16.80;54.50
15705;DHT22;7952;48.396;12.806;2023-05-10T17:02:21;16.70;54.40
15705;DHT22;7952;48.396;12.806;2023-05-10T17:04:47;16.70;54.50
15705;DHT22;7952;48.396;12.806;2023-05-10T17:07:14;16.60;54.50
15705;DHT22;7952;48.396;12.806;2023-05-10T17:09:43;16.60;54.60
15705;DHT22;7952;48.396;12.806;2023-05-10T17:12:09;16.50;54.60
15705;DHT22;7952;48.396;12.806;2023-05-10T17:14:36;16.50;54.70
15705;DHT22;7952;48.396;12.806;2023-05-10T17:17:02;16.50;54.70
15705;DHT22;7952;48.396;12.806;2023-05-10T17:19:28;16.40;54.70
15705;DHT22;7952;48.396;12.806;2023-05-10T17:21:54;16.40;54.70
15705;DHT22;7952;48.396;12.806;2023-05-10T17:24:20;16.30;54.70
15705;DHT22;7952;48.396;12.806;2023-05-10T17:26:45;16.30;54.70
15705;DHT22;7952;48.396;12.806;2023-05-10T17:29:11;16.30;54.80
15705;DHT22;7952;48.396;12.806;2023-05-10T17:31:39;16.30;54.80
15705;DHT22;7952;48.396;12.806;2023-05-10T17:34:05;16.20;54.80
15705;DHT22;7952;48.396;12.806;2023-05-10T17:36:30;16.20;54.90
15705;DHT22;7952;48.396;12.806;2023-05-10T17:38:56;16.10;54.90
15705;DHT22;7952;48.396;12.806;2023-05-10T17:41:23;16.10;54.90
15705;DHT22;7952;48.396;12.806;2023-05-10T17:43:48;16.10;55.00
15705;DHT22;7952;48.396;12.806;2023-05-10T17:46:14;16.10;55.00
15705;DHT22;7952;48.396;12.806;2023-05-10T17:48:40;16.00;55.00
15705;DHT22;7952;48.396;12.806;2023-05-10T17:51:06;16.00;55.00
15705;DHT22;7952;48.396;12.806;2023-05-10T17:53:33;16.00;55.00
15705;DHT22;7952;48.396;12.806;2023-05-10T17:55:59;16.00;55.00
15705;DHT22;7952;48.396;12.806;2023-05-10T17:58:26;16.00;55.00
15705;DHT22;7952;48.396;12.806;2023-05-10T18:00:53;16.00;55.00
15705;DHT22;7952;48.396;12.806;2023-05-10T18:03:19;16.00;55.00
15705;DHT22;7952;48.396;12.806;2023-05-10T18:05:46;15.90;55.00
15705;DHT22;7952;48.396;12.806;2023-05-10T18:08:12;15.90;55.00
15705;DHT22;7952;48.396;12.806;2023-05-10T18:10:38;15.90;55.00
15705;DHT22;7952;48.396;12.806;2023-05-10T18:13:04;15.90;55.00
15705;DHT22;7952;48.396;12.806;2023-05-10T18:15:33;15.90;55.00
15705;DHT22;7952;48.396;12.806;2023-05-10T18:18:03;15.90;55.00
15705;DHT22;7952;48.396;12.806;2023-05-10T18:20:29;15.90;55.00
15705;DHT22;7952;48.396;12.806;2023-05-10T18:22:55;15.90;55.00
15705;DHT22;7952;48.396;12.806;2023-05-10T18:25:25;15.90;55.50
15705;DHT22;7952;48.396;12.806;2023-05-10T18:27:51;15.90;55.00
15705;DHT22;7952;48.396;12.806;2023-05-10T18:30:17;15.90;55.00
15705;DHT22;7952;48.396;12.806;2023-05-10T18:32:43;15.90;55.00
15705;DHT22;7952;48.396;12.806;2023-05-10T18:35:12;15.90;55.00
15705;DHT22;7952;48.396;12.806;2023-05-10T18:37:38;15.90;55.00
15705;DHT22;7952;48.396;12.806;2023-05-10T18:40:05;15.90;55.00
15705;DHT22;7952;48.396;12.806;2023-05-10T18:42:34;15.90;55.00
15705;DHT22;7952;48.396;12.806;2023-05-10T18:44:59;15.90;55.00
15705;DHT22;7952;48.396;12.806;2023-05-10T18:47:25;15.80;55.00
15705;DHT22;7952;48.396;12.806;2023-05-10T18:49:51;15.80;55.00
15705;DHT22;7952;48.396;12.806;2023-05-10T18:52:17;15.80;55.10
15705;DHT22;7952;48.396;12.806;2023-05-10T18:54:43;15.70;55.10
15705;DHT22;7952;48.396;12.806;2023-05-10T18:57:10;15.70;55.10
15705;DHT22;7952;48.396;12.806;2023-05-10T18:59:36;15.70;55.10
15705;DHT22;7952;48.396;12.806;2023-05-10T19:02:01;15.70;55.20
15705;DHT22;7952;48.396;12.806;2023-05-10T19:04:30;15.60;55.20
15705;DHT22;7952;48.396;12.806;2023-05-10T19:06:56;15.60;55.20
15705;DHT22;7952;48.396;12.806;2023-05-10T19:09:22;15.60;55.20
15705;DHT22;7952;48.396;12.806;2023-05-10T19:11:48;15.60;55.30
15705;DHT22;7952;48.396;12.806;2023-05-10T19:14:13;15.60;55.30
15705;DHT22;7952;48.396;12.806;2023-05-10T19:16:39;15.50;55.20
15705;DHT22;7952;48.396;12.806;2023-05-10T19:19:05;15.50;55.30
15705;DHT22;7952;48.396;12.806;2023-05-10T19:21:31;15.50;55.30
15705;DHT22;7952;48.396;12.806;2023-05-10T19:23:57;15.50;55.40
15705;DHT22;7952;48.396;12.806;2023-05-10T19:26:27;15.50;55.40
15705;DHT22;7952;48.396;12.806;2023-05-10T19:28:53;15.50;55.40
15705;DHT22;7952;48.396;12.806;2023-05-10T19:31:20;15.50;55.40
15705;DHT22;7952;48.396;12.806;2023-05-10T19:33:45;15.50;55.30
15705;DHT22;7952;48.396;12.806;2023-05-10T19:36:11;15.50;55.40
15705;DHT22;7952;48.396;12.806;2023-05-10T19:38:37;15.50;55.30
15705;DHT22;7952;48.396;12.806;2023-05-10T19:41:03;15.50;55.40
15705;DHT22;7952;48.396;12.806;2023-05-10T19:43:30;15.50;55.40
15705;DHT22;7952;48.396;12.806;2023-05-10T19:46:00;15.40;55.30
15705;DHT22;7952;48.396;12.806;2023-05-10T19:48:26;15.40;55.40
15705;DHT22;7952;48.396;12.806;2023-05-10T19:50:53;15.40;55.40
15705;DHT22;7952;48.396;12.806;2023-05-10T19:53:19;15.40;55.50
15705;DHT22;7952;48.396;12.806;2023-05-10T19:55:45;15.30;55.50
15705;DHT22;7952;48.396;12.806;2023-05-10T19:58:11;15.30;55.50
15705;DHT22;7952;48.396;12.806;2023-05-10T20:00:36;15.30;55.60
15705;DHT22;7952;48.396;12.806;2023-05-10T20:03:02;15.20;55.60
15705;DHT22;7952;48.396;12.806;2023-05-10T20:05:30;15.20;55.60
15705;DHT22;7952;48.396;12.806;2023-05-10T20:07:55;15.20;55.70
15705;DHT22;7952;48.396;12.806;2023-05-10T20:10:21;15.20;55.80
15705;DHT22;7952;48.396;12.806;2023-05-10T20:12:51;15.10;55.80
15705;DHT22;7952;48.396;12.806;2023-05-10T20:15:21;15.10;55.80
15705;DHT22;7952;48.396;12.806;2023-05-10T20:17:49;15.10;55.80
15705;DHT22;7952;48.396;12.806;2023-05-10T20:20:18;15.00;55.80
15705;DHT22;7952;48.396;12.806;2023-05-10T20:22:47;15.00;55.80
15705;DHT22;7952;48.396;12.806;2023-05-10T20:25:14;15.00;55.90
15705;DHT22;7952;48.396;12.806;2023-05-10T20:27:40;14.90;55.80
15705;DHT22;7952;48.396;12.806;2023-05-10T20:30:06;14.90;55.90
15705;DHT22;7952;48.396;12.806;2023-05-10T20:32:33;14.90;56.00
15705;DHT22;7952;48.396;12.806;2023-05-10T20:34:59;14.90;55.90
15705;DHT22;7952;48.396;12.806;2023-05-10T20:37:24;14.90;56.00
15705;DHT22;7952;48.396;12.806;2023-05-10T20:39:52;14.90;56.00
15705;DHT22;7952;48.396;12.806;2023-05-10T20:42:17;14.80;56.00